sensor_id;sensor_type;location;lat;lon;timestamp;P1;durP1;ratioP1;P2;durP2;ratioP2
59970;SDS011;45825;45.434;9.116;2023-11-19T00:00:51;20.92;;;14.63;;
59970;SDS011;45825;45.434;9.116;2023-11-19T00:03:16;22.27;;;14.57;;
59970;SDS011;45825;45.434;9.116;2023-11-19T00:05:42;24.48;;;14.93;;
59970;SDS011;45825;45.434;9.116;2023-11-19T00:08:09;23.08;;;16.02;;
59970;SDS011;45825;45.434;9.116;2023-11-19T00:10:35;25.33;;;16.60;;
59970;SDS011;45825;45.434;9.116;2023-11-19T00:13:00;23.23;;;15.68;;
59970;SDS011;45825;45.434;9.116;2023-11-19T00:15:25;21.48;;;14.45;;
59970;SDS011;45825;45.434;9.116;2023-11-19T00:17:50;21.15;;;15.77;;
59970;SDS011;45825;45.434;9.116;2023-11-19T00:20:17;23.13;;;15.57;;
59970;SDS011;45825;45.434;9.116;2023-11-19T00:22:43;26.35;;;16.92;;
59970;SDS011;45825;45.434;9.116;2023-11-19T00:25:09;25.65;;;16.05;;
59970;SDS011;45825;45.434;9.116;2023-11-19T00:27:35;23.83;;;16.33;;
59970;SDS011;45825;45.434;9.116;2023-11-19T00:30:01;25.42;;;16.30;;
59970;SDS011;45825;45.434;9.116;2023-11-19T00:32:26;24.38;;;16.35;;
59970;SDS011;45825;45.434;9.116;2023-11-19T00:34:52;23.67;;;15.45;;
59970;SDS011;45825;45.434;9.116;2023-11-19T00:37:17;21.92;;;15.63;;
59970;SDS011;45825;45.434;9.116;2023-11-19T00:39:42;25.02;;;16.08;;
59970;SDS011;45825;45.434;9.116;2023-11-19T00:42:08;24.75;;;16.42;;
59970;SDS011;45825;45.434;9.116;2023-11-19T00:44:35;22.20;;;15.55;;
59970;SDS011;45825;45.434;9.116;2023-11-19T00:47:00;23.27;;;15.98;;
59970;SDS011;45825;45.434;9.116;2023-11-19T00:49:25;23.70;;;16.65;;
59970;SDS011;45825;45.434;9.116;2023-11-19T00:51:51;24.92;;;16.40;;
59970;SDS011;45825;45.434;9.116;2023-11-19T00:54:16;25.50;;;16.70;;
59970;SDS011;45825;45.434;9.116;2023-11-19T00:56:41;24.83;;;17.00;;
59970;SDS011;45825;45.434;9.116;2023-11-19T00:59:07;25.92;;;16.70;;
59970;SDS011;45825;45.434;9.116;2023-11-19T01:01:32;24.67;;;16.65;;
59970;SDS011;45825;45.434;9.116;2023-11-19T01:03:58;25.30;;;17.13;;
59970;SDS011;45825;45.434;9.116;2023-11-19T01:06:27;23.17;;;16.25;;
59970;SDS011;45825;45.434;9.116;2023-11-19T01:08:53;25.17;;;16.88;;
59970;SDS011;45825;45.434;9.116;2023-11-19T01:11:20;25.48;;;17.38;;
59970;SDS011;45825;45.434;9.116;2023-11-19T01:13:46;26.80;;;17.50;;
59970;SDS011;45825;45.434;9.116;2023-11-19T01:16:11;23.95;;;17.27;;
59970;SDS011;45825;45.434;9.116;2023-11-19T01:18:37;23.58;;;17.30;;
59970;SDS011;45825;45.434;9.116;2023-11-19T01:21:03;26.58;;;16.52;;
59970;SDS011;45825;45.434;9.116;2023-11-19T01:23:29;25.67;;;16.23;;
59970;SDS011;45825;45.434;9.116;2023-11-19T01:25:54;26.55;;;17.73;;
59970;SDS011;45825;45.434;9.116;2023-11-19T01:28:19;23.38;;;16.48;;
59970;SDS011;45825;45.434;9.116;2023-11-19T01:30:45;24.00;;;16.95;;
59970;SDS011;45825;45.434;9.116;2023-11-19T01:33:10;23.98;;;17.63;;
59970;SDS011;45825;45.434;9.116;2023-11-19T01:35:35;25.60;;;17.33;;
59970;SDS011;45825;45.434;9.116;2023-11-19T01:38:00;24.20;;;17.33;;
59970;SDS011;45825;45.434;9.116;2023-11-19T01:40:26;22.58;;;16.88;;
59970;SDS011;45825;45.434;9.116;2023-11-19T01:42:51;23.13;;;16.80;;
59970;SDS011;45825;45.434;9.116;2023-11-19T01:45:21;24.85;;;16.95;;
59970;SDS011;45825;45.434;9.116;2023-11-19T01:47:53;27.13;;;17.20;;
59970;SDS011;45825;45.434;9.116;2023-11-19T01:50:18;22.67;;;15.85;;
59970;SDS011;45825;45.434;9.116;2023-11-19T01:52:44;27.05;;;15.82;;
59970;SDS011;45825;45.434;9.116;2023-11-19T01:55:10;23.92;;;15.98;;
59970;SDS011;45825;45.434;9.116;2023-11-19T01:57:36;23.75;;;15.88;;
59970;SDS011;45825;45.434;9.116;2023-11-19T02:00:03;24.73;;;16.77;;
59970;SDS011;45825;45.434;9.116;2023-11-19T02:02:29;25.58;;;17.10;;
59970;SDS011;45825;45.434;9.116;2023-11-19T02:04:55;23.15;;;16.27;;
59970;SDS011;45825;45.434;9.116;2023-11-19T02:07:21;25.15;;;16.95;;
59970;SDS011;45825;45.434;9.116;2023-11-19T02:09:47;23.17;;;16.20;;
59970;SDS011;45825;45.434;9.116;2023-11-19T02:12:12;23.77;;;15.38;;
59970;SDS011;45825;45.434;9.116;2023-11-19T02:14:38;21.55;;;15.10;;
59970;SDS011;45825;45.434;9.116;2023-11-19T02:17:03;20.65;;;14.82;;
59970;SDS011;45825;45.434;9.116;2023-11-19T02:19:29;21.50;;;14.98;;
59970;SDS011;45825;45.434;9.116;2023-11-19T02:21:54;24.35;;;15.15;;
59970;SDS011;45825;45.434;9.116;2023-11-19T02:24:21;22.83;;;15.25;;
59970;SDS011;45825;45.434;9.116;2023-11-19T02:29:27;21.83;;;15.25;;
59970;SDS011;45825;45.434;9.116;2023-11-19T02:31:52;21.67;;;15.20;;
59970;SDS011;45825;45.434;9.116;2023-11-19T02:34:19;23.88;;;15.77;;
59970;SDS011;45825;45.434;9.116;2023-11-19T02:36:46;23.85;;;16.05;;
59970;SDS011;45825;45.434;9.116;2023-11-19T02:39:12;21.35;;;15.45;;
59970;SDS011;45825;45.434;9.116;2023-11-19T02:41:38;25.58;;;15.05;;
59970;SDS011;45825;45.434;9.116;2023-11-19T02:44:04;25.33;;;15.77;;
59970;SDS011;45825;45.434;9.116;2023-11-19T02:46:31;24.52;;;14.68;;
59970;SDS011;45825;45.434;9.116;2023-11-19T02:48:57;25.27;;;15.93;;
59970;SDS011;45825;45.434;9.116;2023-11-19T02:51:22;24.83;;;15.93;;
59970;SDS011;45825;45.434;9.116;2023-11-19T02:53:47;26.00;;;16.05;;
59970;SDS011;45825;45.434;9.116;2023-11-19T02:56:13;23.42;;;16.17;;
59970;SDS011;45825;45.434;9.116;2023-11-19T02:58:50;24.52;;;16.13;;
59970;SDS011;45825;45.434;9.116;2023-11-19T03:01:21;22.08;;;16.23;;
59970;SDS011;45825;45.434;9.116;2023-11-19T03:03:55;21.95;;;15.70;;
59970;SDS011;45825;45.434;9.116;2023-11-19T03:06:22;24.50;;;16.95;;
59970;SDS011;45825;45.434;9.116;2023-11-19T03:08:48;23.33;;;15.25;;
59970;SDS011;45825;45.434;9.116;2023-11-19T03:11:13;23.35;;;16.02;;
59970;SDS011;45825;45.434;9.116;2023-11-19T03:13:39;22.00;;;16.13;;
59970;SDS011;45825;45.434;9.116;2023-11-19T03:16:05;25.23;;;16.15;;
59970;SDS011;45825;45.434;9.116;2023-11-19T03:18:30;25.35;;;16.08;;
59970;SDS011;45825;45.434;9.116;2023-11-19T03:20:56;21.67;;;16.42;;
59970;SDS011;45825;45.434;9.116;2023-11-19T03:23:23;22.75;;;16.90;;
59970;SDS011;45825;45.434;9.116;2023-11-19T03:25:49;27.10;;;16.80;;
59970;SDS011;45825;45.434;9.116;2023-11-19T03:28:14;21.13;;;16.17;;
59970;SDS011;45825;45.434;9.116;2023-11-19T03:30:40;22.25;;;16.55;;
59970;SDS011;45825;45.434;9.116;2023-11-19T03:33:05;24.48;;;17.02;;
59970;SDS011;45825;45.434;9.116;2023-11-19T03:35:30;24.38;;;16.27;;
59970;SDS011;45825;45.434;9.116;2023-11-19T03:37:56;24.25;;;17.42;;
59970;SDS011;45825;45.434;9.116;2023-11-19T03:40:21;23.75;;;16.25;;
59970;SDS011;45825;45.434;9.116;2023-11-19T03:42:48;23.88;;;17.73;;
59970;SDS011;45825;45.434;9.116;2023-11-19T03:45:13;21.17;;;16.40;;
59970;SDS011;45825;45.434;9.116;2023-11-19T03:47:40;28.30;;;18.13;;
59970;SDS011;45825;45.434;9.116;2023-11-19T03:50:06;26.13;;;18.50;;
59970;SDS011;45825;45.434;9.116;2023-11-19T03:52:33;24.98;;;18.00;;
59970;SDS011;45825;45.434;9.116;2023-11-19T03:54:58;25.33;;;16.98;;
59970;SDS011;45825;45.434;9.116;2023-11-19T03:57:24;22.88;;;17.00;;
59970;SDS011;45825;45.434;9.116;2023-11-19T03:59:49;21.45;;;16.92;;
59970;SDS011;45825;45.434;9.116;2023-11-19T04:02:15;25.63;;;17.42;;
59970;SDS011;45825;45.434;9.116;2023-11-19T04:04:41;22.33;;;17.15;;
59970;SDS011;45825;45.434;9.116;2023-11-19T04:07:06;26.42;;;17.38;;
59970;SDS011;45825;45.434;9.116;2023-11-19T04:09:32;25.90;;;17.75;;
59970;SDS011;45825;45.434;9.116;2023-11-19T04:12:02;23.95;;;17.17;;
59970;SDS011;45825;45.434;9.116;2023-11-19T04:14:28;24.33;;;16.45;;
59970;SDS011;45825;45.434;9.116;2023-11-19T04:16:54;25.80;;;17.65;;
59970;SDS011;45825;45.434;9.116;2023-11-19T04:19:19;24.10;;;17.00;;
59970;SDS011;45825;45.434;9.116;2023-11-19T04:21:45;24.02;;;17.45;;
59970;SDS011;45825;45.434;9.116;2023-11-19T04:24:11;23.58;;;16.67;;
59970;SDS011;45825;45.434;9.116;2023-11-19T04:26:43;25.63;;;17.67;;
59970;SDS011;45825;45.434;9.116;2023-11-19T04:29:13;25.35;;;17.77;;
59970;SDS011;45825;45.434;9.116;2023-11-19T04:31:40;28.13;;;17.38;;
59970;SDS011;45825;45.434;9.116;2023-11-19T04:34:06;22.50;;;16.67;;
59970;SDS011;45825;45.434;9.116;2023-11-19T04:36:32;24.70;;;17.70;;
59970;SDS011;45825;45.434;9.116;2023-11-19T04:38:58;27.98;;;17.80;;
59970;SDS011;45825;45.434;9.116;2023-11-19T04:41:24;26.67;;;17.77;;
59970;SDS011;45825;45.434;9.116;2023-11-19T04:43:50;29.67;;;17.75;;
59970;SDS011;45825;45.434;9.116;2023-11-19T04:46:15;24.05;;;17.63;;
59970;SDS011;45825;45.434;9.116;2023-11-19T04:48:41;23.08;;;16.63;;
59970;SDS011;45825;45.434;9.116;2023-11-19T04:51:06;24.45;;;16.73;;
59970;SDS011;45825;45.434;9.116;2023-11-19T04:53:34;22.27;;;16.67;;
59970;SDS011;45825;45.434;9.116;2023-11-19T04:55:59;23.92;;;17.38;;
59970;SDS011;45825;45.434;9.116;2023-11-19T04:58:25;23.23;;;17.42;;
59970;SDS011;45825;45.434;9.116;2023-11-19T05:00:50;22.52;;;17.25;;
59970;SDS011;45825;45.434;9.116;2023-11-19T05:03:15;21.52;;;16.98;;
59970;SDS011;45825;45.434;9.116;2023-11-19T05:05:41;21.70;;;17.33;;
59970;SDS011;45825;45.434;9.116;2023-11-19T05:08:06;27.13;;;16.95;;
59970;SDS011;45825;45.434;9.116;2023-11-19T05:10:31;22.13;;;16.23;;
59970;SDS011;45825;45.434;9.116;2023-11-19T05:12:57;22.00;;;16.73;;
59970;SDS011;45825;45.434;9.116;2023-11-19T05:15:22;26.30;;;17.25;;
59970;SDS011;45825;45.434;9.116;2023-11-19T05:17:47;21.63;;;16.08;;
59970;SDS011;45825;45.434;9.116;2023-11-19T05:20:13;23.60;;;16.58;;
59970;SDS011;45825;45.434;9.116;2023-11-19T05:22:41;25.02;;;16.17;;
59970;SDS011;45825;45.434;9.116;2023-11-19T05:25:07;21.52;;;15.75;;
59970;SDS011;45825;45.434;9.116;2023-11-19T05:27:34;21.95;;;16.30;;
59970;SDS011;45825;45.434;9.116;2023-11-19T05:30:00;23.13;;;15.35;;
59970;SDS011;45825;45.434;9.116;2023-11-19T05:32:26;20.77;;;14.98;;
59970;SDS011;45825;45.434;9.116;2023-11-19T05:34:51;20.75;;;15.02;;
59970;SDS011;45825;45.434;9.116;2023-11-19T05:37:17;20.08;;;15.45;;
59970;SDS011;45825;45.434;9.116;2023-11-19T05:39:44;22.48;;;15.48;;
59970;SDS011;45825;45.434;9.116;2023-11-19T05:42:10;19.80;;;14.40;;
59970;SDS011;45825;45.434;9.116;2023-11-19T05:44:35;21.77;;;15.20;;
59970;SDS011;45825;45.434;9.116;2023-11-19T05:47:01;22.25;;;15.63;;
59970;SDS011;45825;45.434;9.116;2023-11-19T05:49:27;21.52;;;15.45;;
59970;SDS011;45825;45.434;9.116;2023-11-19T05:51:52;21.88;;;15.38;;
59970;SDS011;45825;45.434;9.116;2023-11-19T05:54:20;20.75;;;15.15;;
59970;SDS011;45825;45.434;9.116;2023-11-19T05:56:48;21.00;;;15.27;;
59970;SDS011;45825;45.434;9.116;2023-11-19T05:59:14;19.77;;;14.57;;
59970;SDS011;45825;45.434;9.116;2023-11-19T06:01:42;19.48;;;14.38;;
59970;SDS011;45825;45.434;9.116;2023-11-19T06:04:09;19.08;;;13.82;;
59970;SDS011;45825;45.434;9.116;2023-11-19T06:06:35;21.85;;;14.93;;
59970;SDS011;45825;45.434;9.116;2023-11-19T06:09:01;19.25;;;14.23;;
59970;SDS011;45825;45.434;9.116;2023-11-19T06:11:27;21.42;;;14.43;;
59970;SDS011;45825;45.434;9.116;2023-11-19T06:13:52;21.20;;;15.02;;
59970;SDS011;45825;45.434;9.116;2023-11-19T06:16:18;21.02;;;14.35;;
59970;SDS011;45825;45.434;9.116;2023-11-19T06:18:43;19.83;;;14.10;;
59970;SDS011;45825;45.434;9.116;2023-11-19T06:21:09;18.95;;;13.93;;
59970;SDS011;45825;45.434;9.116;2023-11-19T06:23:35;20.10;;;14.32;;
59970;SDS011;45825;45.434;9.116;2023-11-19T06:26:00;19.20;;;14.77;;
59970;SDS011;45825;45.434;9.116;2023-11-19T06:28:26;20.35;;;14.55;;
59970;SDS011;45825;45.434;9.116;2023-11-19T06:30:51;21.13;;;14.25;;
59970;SDS011;45825;45.434;9.116;2023-11-19T06:33:16;19.00;;;14.35;;
59970;SDS011;45825;45.434;9.116;2023-11-19T06:35:42;21.55;;;15.15;;
59970;SDS011;45825;45.434;9.116;2023-11-19T06:38:07;21.27;;;15.05;;
59970;SDS011;45825;45.434;9.116;2023-11-19T06:40:33;21.80;;;14.70;;
59970;SDS011;45825;45.434;9.116;2023-11-19T06:43:00;22.40;;;14.98;;
59970;SDS011;45825;45.434;9.116;2023-11-19T06:45:25;22.90;;;15.70;;
59970;SDS011;45825;45.434;9.116;2023-11-19T06:47:50;22.60;;;15.10;;
59970;SDS011;45825;45.434;9.116;2023-11-19T06:50:16;21.55;;;15.52;;
59970;SDS011;45825;45.434;9.116;2023-11-19T06:52:41;20.77;;;14.95;;
59970;SDS011;45825;45.434;9.116;2023-11-19T06:55:06;20.80;;;15.23;;
59970;SDS011;45825;45.434;9.116;2023-11-19T06:57:32;19.70;;;14.65;;
59970;SDS011;45825;45.434;9.116;2023-11-19T06:59:58;19.48;;;14.60;;
59970;SDS011;45825;45.434;9.116;2023-11-19T07:02:23;22.27;;;14.20;;
59970;SDS011;45825;45.434;9.116;2023-11-19T07:04:49;20.80;;;14.00;;
59970;SDS011;45825;45.434;9.116;2023-11-19T07:07:15;22.65;;;15.07;;
59970;SDS011;45825;45.434;9.116;2023-11-19T07:09:40;20.73;;;14.70;;
59970;SDS011;45825;45.434;9.116;2023-11-19T07:12:06;20.65;;;13.90;;
59970;SDS011;45825;45.434;9.116;2023-11-19T07:14:31;24.38;;;14.15;;
59970;SDS011;45825;45.434;9.116;2023-11-19T07:16:57;18.90;;;13.32;;
59970;SDS011;45825;45.434;9.116;2023-11-19T07:19:22;17.85;;;12.88;;
59970;SDS011;45825;45.434;9.116;2023-11-19T07:21:47;19.92;;;13.65;;
59970;SDS011;45825;45.434;9.116;2023-11-19T07:24:13;20.63;;;13.65;;
59970;SDS011;45825;45.434;9.116;2023-11-19T07:26:42;20.73;;;13.48;;
59970;SDS011;45825;45.434;9.116;2023-11-19T07:29:09;18.52;;;12.68;;
59970;SDS011;45825;45.434;9.116;2023-11-19T07:31:34;18.52;;;13.07;;
59970;SDS011;45825;45.434;9.116;2023-11-19T07:33:59;18.83;;;13.23;;
59970;SDS011;45825;45.434;9.116;2023-11-19T07:36:24;15.95;;;12.50;;
59970;SDS011;45825;45.434;9.116;2023-11-19T07:38:50;20.42;;;13.60;;
59970;SDS011;45825;45.434;9.116;2023-11-19T07:41:15;18.05;;;13.25;;
59970;SDS011;45825;45.434;9.116;2023-11-19T07:43:42;19.58;;;13.05;;
59970;SDS011;45825;45.434;9.116;2023-11-19T07:46:12;16.17;;;12.75;;
59970;SDS011;45825;45.434;9.116;2023-11-19T07:48:39;17.45;;;12.60;;
59970;SDS011;45825;45.434;9.116;2023-11-19T07:51:04;18.65;;;12.40;;
59970;SDS011;45825;45.434;9.116;2023-11-19T07:53:30;18.67;;;11.80;;
59970;SDS011;45825;45.434;9.116;2023-11-19T07:55:55;16.10;;;11.35;;
59970;SDS011;45825;45.434;9.116;2023-11-19T07:58:21;16.13;;;11.70;;
59970;SDS011;45825;45.434;9.116;2023-11-19T08:00:46;17.42;;;11.55;;
59970;SDS011;45825;45.434;9.116;2023-11-19T08:03:11;17.42;;;12.00;;
59970;SDS011;45825;45.434;9.116;2023-11-19T08:05:36;16.05;;;11.40;;
59970;SDS011;45825;45.434;9.116;2023-11-19T08:08:02;16.90;;;11.75;;
59970;SDS011;45825;45.434;9.116;2023-11-19T08:10:27;16.20;;;11.93;;
59970;SDS011;45825;45.434;9.116;2023-11-19T08:12:53;17.17;;;11.98;;
59970;SDS011;45825;45.434;9.116;2023-11-19T08:15:19;20.10;;;12.18;;
59970;SDS011;45825;45.434;9.116;2023-11-19T08:17:44;16.55;;;12.73;;
59970;SDS011;45825;45.434;9.116;2023-11-19T08:20:10;16.95;;;11.88;;
59970;SDS011;45825;45.434;9.116;2023-11-19T08:22:38;16.95;;;12.15;;
59970;SDS011;45825;45.434;9.116;2023-11-19T08:25:04;21.27;;;13.07;;
59970;SDS011;45825;45.434;9.116;2023-11-19T08:27:30;16.83;;;13.02;;
59970;SDS011;45825;45.434;9.116;2023-11-19T08:29:56;15.10;;;12.43;;
59970;SDS011;45825;45.434;9.116;2023-11-19T08:32:22;16.75;;;12.50;;
59970;SDS011;45825;45.434;9.116;2023-11-19T08:34:50;18.38;;;12.38;;
59970;SDS011;45825;45.434;9.116;2023-11-19T08:37:16;17.52;;;12.45;;
59970;SDS011;45825;45.434;9.116;2023-11-19T08:39:43;18.02;;;13.13;;
59970;SDS011;45825;45.434;9.116;2023-11-19T08:42:08;17.70;;;12.85;;
59970;SDS011;45825;45.434;9.116;2023-11-19T08:44:34;17.95;;;12.55;;
59970;SDS011;45825;45.434;9.116;2023-11-19T08:46:59;17.63;;;12.73;;
59970;SDS011;45825;45.434;9.116;2023-11-19T08:49:24;16.58;;;12.57;;
59970;SDS011;45825;45.434;9.116;2023-11-19T08:51:50;17.40;;;12.68;;
59970;SDS011;45825;45.434;9.116;2023-11-19T08:54:16;15.70;;;12.00;;
59970;SDS011;45825;45.434;9.116;2023-11-19T08:56:41;17.55;;;12.82;;
59970;SDS011;45825;45.434;9.116;2023-11-19T08:59:06;17.08;;;12.45;;
59970;SDS011;45825;45.434;9.116;2023-11-19T09:01:32;16.05;;;10.93;;
59970;SDS011;45825;45.434;9.116;2023-11-19T09:03:57;18.52;;;11.57;;
59970;SDS011;45825;45.434;9.116;2023-11-19T09:06:22;15.90;;;11.93;;
59970;SDS011;45825;45.434;9.116;2023-11-19T09:08:48;15.30;;;10.75;;
59970;SDS011;45825;45.434;9.116;2023-11-19T09:11:13;16.35;;;11.63;;
59970;SDS011;45825;45.434;9.116;2023-11-19T09:13:38;16.05;;;11.15;;
59970;SDS011;45825;45.434;9.116;2023-11-19T09:16:04;15.38;;;10.77;;
59970;SDS011;45825;45.434;9.116;2023-11-19T09:18:29;16.98;;;10.63;;
59970;SDS011;45825;45.434;9.116;2023-11-19T09:20:55;15.95;;;10.38;;
59970;SDS011;45825;45.434;9.116;2023-11-19T09:23:21;14.20;;;10.25;;
59970;SDS011;45825;45.434;9.116;2023-11-19T09:25:46;17.25;;;13.25;;
59970;SDS011;45825;45.434;9.116;2023-11-19T09:28:11;19.25;;;13.95;;
59970;SDS011;45825;45.434;9.116;2023-11-19T09:30:39;20.88;;;14.18;;
59970;SDS011;45825;45.434;9.116;2023-11-19T09:33:04;18.42;;;14.07;;
59970;SDS011;45825;45.434;9.116;2023-11-19T09:35:30;18.75;;;14.07;;
59970;SDS011;45825;45.434;9.116;2023-11-19T09:37:55;19.52;;;15.57;;
59970;SDS011;45825;45.434;9.116;2023-11-19T09:40:21;19.45;;;15.65;;
59970;SDS011;45825;45.434;9.116;2023-11-19T09:42:47;24.48;;;15.77;;
59970;SDS011;45825;45.434;9.116;2023-11-19T09:45:13;19.13;;;15.45;;
59970;SDS011;45825;45.434;9.116;2023-11-19T09:47:43;19.35;;;15.55;;
59970;SDS011;45825;45.434;9.116;2023-11-19T09:50:10;20.02;;;15.98;;
59970;SDS011;45825;45.434;9.116;2023-11-19T09:52:43;21.80;;;16.25;;
59970;SDS011;45825;45.434;9.116;2023-11-19T09:55:10;19.27;;;15.15;;
59970;SDS011;45825;45.434;9.116;2023-11-19T09:57:35;20.20;;;15.77;;
59970;SDS011;45825;45.434;9.116;2023-11-19T10:00:07;19.63;;;14.73;;
59970;SDS011;45825;45.434;9.116;2023-11-19T10:02:35;20.70;;;16.30;;
59970;SDS011;45825;45.434;9.116;2023-11-19T10:05:03;18.98;;;15.90;;
59970;SDS011;45825;45.434;9.116;2023-11-19T10:07:30;19.20;;;15.18;;
59970;SDS011;45825;45.434;9.116;2023-11-19T10:09:57;20.92;;;14.95;;
59970;SDS011;45825;45.434;9.116;2023-11-19T10:12:26;18.02;;;15.52;;
59970;SDS011;45825;45.434;9.116;2023-11-19T10:14:54;18.35;;;14.55;;
59970;SDS011;45825;45.434;9.116;2023-11-19T10:17:22;19.88;;;14.93;;
59970;SDS011;45825;45.434;9.116;2023-11-19T10:19:54;20.63;;;15.82;;
59970;SDS011;45825;45.434;9.116;2023-11-19T10:22:19;18.00;;;14.18;;
59970;SDS011;45825;45.434;9.116;2023-11-19T10:24:44;18.65;;;13.75;;
59970;SDS011;45825;45.434;9.116;2023-11-19T10:27:10;17.50;;;13.80;;
59970;SDS011;45825;45.434;9.116;2023-11-19T10:29:36;18.23;;;14.18;;
59970;SDS011;45825;45.434;9.116;2023-11-19T10:32:04;18.75;;;13.57;;
59970;SDS011;45825;45.434;9.116;2023-11-19T10:34:30;17.70;;;14.07;;
59970;SDS011;45825;45.434;9.116;2023-11-19T10:36:55;18.92;;;13.48;;
59970;SDS011;45825;45.434;9.116;2023-11-19T10:39:21;19.30;;;14.27;;
59970;SDS011;45825;45.434;9.116;2023-11-19T10:41:46;18.38;;;14.05;;
59970;SDS011;45825;45.434;9.116;2023-11-19T10:44:11;15.88;;;13.38;;
59970;SDS011;45825;45.434;9.116;2023-11-19T10:46:37;18.40;;;13.65;;
59970;SDS011;45825;45.434;9.116;2023-11-19T10:49:04;17.00;;;13.18;;
59970;SDS011;45825;45.434;9.116;2023-11-19T10:51:31;16.55;;;13.75;;
59970;SDS011;45825;45.434;9.116;2023-11-19T10:53:58;19.58;;;14.23;;
59970;SDS011;45825;45.434;9.116;2023-11-19T10:56:32;16.88;;;12.85;;
59970;SDS011;45825;45.434;9.116;2023-11-19T10:58:59;16.90;;;12.88;;
59970;SDS011;45825;45.434;9.116;2023-11-19T11:01:26;16.92;;;13.93;;
59970;SDS011;45825;45.434;9.116;2023-11-19T11:03:58;17.65;;;14.02;;
59970;SDS011;45825;45.434;9.116;2023-11-19T11:06:25;16.98;;;13.80;;
59970;SDS011;45825;45.434;9.116;2023-11-19T11:08:51;17.08;;;14.18;;
59970;SDS011;45825;45.434;9.116;2023-11-19T11:11:18;17.40;;;13.38;;
59970;SDS011;45825;45.434;9.116;2023-11-19T11:13:46;19.33;;;14.45;;
59970;SDS011;45825;45.434;9.116;2023-11-19T11:16:12;17.33;;;13.75;;
59970;SDS011;45825;45.434;9.116;2023-11-19T11:18:39;15.90;;;13.63;;
59970;SDS011;45825;45.434;9.116;2023-11-19T11:21:07;16.77;;;13.30;;
59970;SDS011;45825;45.434;9.116;2023-11-19T11:23:51;17.65;;;13.85;;
59970;SDS011;45825;45.434;9.116;2023-11-19T11:39:53;17.60;;;14.07;;
59970;SDS011;45825;45.434;9.116;2023-11-19T11:45:06;17.63;;;14.25;;
59970;SDS011;45825;45.434;9.116;2023-11-19T11:50:07;17.67;;;13.55;;
59970;SDS011;45825;45.434;9.116;2023-11-19T11:52:34;16.25;;;13.10;;
59970;SDS011;45825;45.434;9.116;2023-11-19T11:55:25;14.88;;;12.93;;
59970;SDS011;45825;45.434;9.116;2023-11-19T11:57:51;15.32;;;12.35;;
59970;SDS011;45825;45.434;9.116;2023-11-19T12:00:26;15.80;;;12.50;;
59970;SDS011;45825;45.434;9.116;2023-11-19T12:03:02;15.82;;;13.23;;
59970;SDS011;45825;45.434;9.116;2023-11-19T12:05:30;17.98;;;13.50;;
59970;SDS011;45825;45.434;9.116;2023-11-19T12:08:05;16.10;;;13.55;;
59970;SDS011;45825;45.434;9.116;2023-11-19T12:10:45;15.02;;;12.48;;
59970;SDS011;45825;45.434;9.116;2023-11-19T12:13:17;14.13;;;12.02;;
59970;SDS011;45825;45.434;9.116;2023-11-19T12:18:25;16.45;;;12.27;;
59970;SDS011;45825;45.434;9.116;2023-11-19T12:20:52;15.02;;;12.88;;
59970;SDS011;45825;45.434;9.116;2023-11-19T12:23:17;16.95;;;13.07;;
59970;SDS011;45825;45.434;9.116;2023-11-19T12:25:42;17.77;;;13.55;;
59970;SDS011;45825;45.434;9.116;2023-11-19T12:28:12;15.68;;;13.30;;
59970;SDS011;45825;45.434;9.116;2023-11-19T12:30:39;15.13;;;12.32;;
59970;SDS011;45825;45.434;9.116;2023-11-19T12:33:08;14.90;;;12.18;;
59970;SDS011;45825;45.434;9.116;2023-11-19T12:35:38;16.80;;;13.23;;
59970;SDS011;45825;45.434;9.116;2023-11-19T12:38:04;16.33;;;12.00;;
59970;SDS011;45825;45.434;9.116;2023-11-19T12:40:30;16.70;;;12.65;;
59970;SDS011;45825;45.434;9.116;2023-11-19T12:42:55;13.55;;;11.40;;
59970;SDS011;45825;45.434;9.116;2023-11-19T12:45:21;15.80;;;11.68;;
59970;SDS011;45825;45.434;9.116;2023-11-19T12:47:48;14.45;;;11.10;;
59970;SDS011;45825;45.434;9.116;2023-11-19T12:50:15;13.23;;;10.93;;
59970;SDS011;45825;45.434;9.116;2023-11-19T12:52:42;13.35;;;10.70;;
59970;SDS011;45825;45.434;9.116;2023-11-19T12:57:53;13.05;;;9.82;;
59970;SDS011;45825;45.434;9.116;2023-11-19T13:00:23;14.32;;;10.85;;
59970;SDS011;45825;45.434;9.116;2023-11-19T13:02:50;14.73;;;10.48;;
59970;SDS011;45825;45.434;9.116;2023-11-19T13:05:30;13.52;;;12.13;;
59970;SDS011;45825;45.434;9.116;2023-11-19T13:08:01;12.23;;;10.38;;
59970;SDS011;45825;45.434;9.116;2023-11-19T13:10:34;14.23;;;11.07;;
59970;SDS011;45825;45.434;9.116;2023-11-19T13:13:16;15.32;;;13.13;;
59970;SDS011;45825;45.434;9.116;2023-11-19T13:15:41;15.60;;;13.90;;
59970;SDS011;45825;45.434;9.116;2023-11-19T13:18:08;15.40;;;13.38;;
59970;SDS011;45825;45.434;9.116;2023-11-19T13:20:33;16.13;;;14.35;;
59970;SDS011;45825;45.434;9.116;2023-11-19T13:23:02;15.75;;;14.02;;
59970;SDS011;45825;45.434;9.116;2023-11-19T13:25:28;15.53;;;14.00;;
59970;SDS011;45825;45.434;9.116;2023-11-19T13:27:55;16.20;;;14.50;;
59970;SDS011;45825;45.434;9.116;2023-11-19T13:30:21;15.80;;;14.20;;
59970;SDS011;45825;45.434;9.116;2023-11-19T13:32:47;16.60;;;14.73;;
59970;SDS011;45825;45.434;9.116;2023-11-19T13:35:13;17.70;;;14.95;;
59970;SDS011;45825;45.434;9.116;2023-11-19T13:37:39;17.92;;;15.13;;
59970;SDS011;45825;45.434;9.116;2023-11-19T13:40:05;16.92;;;15.23;;
59970;SDS011;45825;45.434;9.116;2023-11-19T13:42:31;16.52;;;14.80;;
59970;SDS011;45825;45.434;9.116;2023-11-19T13:44:56;16.27;;;14.38;;
59970;SDS011;45825;45.434;9.116;2023-11-19T13:47:22;17.23;;;14.68;;
59970;SDS011;45825;45.434;9.116;2023-11-19T13:49:48;17.13;;;15.20;;
59970;SDS011;45825;45.434;9.116;2023-11-19T13:52:14;16.25;;;14.02;;
59970;SDS011;45825;45.434;9.116;2023-11-19T13:54:40;17.95;;;14.75;;
59970;SDS011;45825;45.434;9.116;2023-11-19T13:57:06;17.92;;;15.60;;
59970;SDS011;45825;45.434;9.116;2023-11-19T13:59:31;18.63;;;16.58;;
59970;SDS011;45825;45.434;9.116;2023-11-19T14:01:57;17.70;;;15.73;;
59970;SDS011;45825;45.434;9.116;2023-11-19T14:04:23;18.25;;;16.35;;
59970;SDS011;45825;45.434;9.116;2023-11-19T14:06:48;18.55;;;16.55;;
59970;SDS011;45825;45.434;9.116;2023-11-19T14:09:13;18.83;;;16.30;;
59970;SDS011;45825;45.434;9.116;2023-11-19T14:11:39;19.80;;;17.38;;
59970;SDS011;45825;45.434;9.116;2023-11-19T14:14:05;22.10;;;16.73;;
59970;SDS011;45825;45.434;9.116;2023-11-19T14:16:30;22.48;;;17.83;;
59970;SDS011;45825;45.434;9.116;2023-11-19T14:18:57;19.95;;;17.27;;
59970;SDS011;45825;45.434;9.116;2023-11-19T14:21:22;20.00;;;17.83;;
59970;SDS011;45825;45.434;9.116;2023-11-19T14:23:48;21.85;;;17.85;;
59970;SDS011;45825;45.434;9.116;2023-11-19T14:26:13;23.38;;;18.77;;
59970;SDS011;45825;45.434;9.116;2023-11-19T14:28:38;21.52;;;19.25;;
59970;SDS011;45825;45.434;9.116;2023-11-19T14:31:04;21.33;;;18.77;;
59970;SDS011;45825;45.434;9.116;2023-11-19T14:33:30;20.63;;;18.02;;
59970;SDS011;45825;45.434;9.116;2023-11-19T14:35:56;20.85;;;18.65;;
59970;SDS011;45825;45.434;9.116;2023-11-19T14:38:22;23.20;;;17.55;;
59970;SDS011;45825;45.434;9.116;2023-11-19T14:40:47;25.08;;;18.00;;
59970;SDS011;45825;45.434;9.116;2023-11-19T14:43:13;25.30;;;18.17;;